Time;durP1;ratioP1;P1;durP2;ratioP2;P2;SDS_P1;SDS_P2;PMS_P1;PMS_P2;Temp;Humidity;BMP_temperature;BMP_pressure;BME280_temperature;BME280_humidity;BME280_pressure;Samples;Min_cycle;Max_cycle;Signal;HPM_P1;HPM_P2
2022/03/15 00:01:48;;;;;;;5.97;4.15;;;;;;;;;;4991703;28;20462;-36
2022/03/15 00:04:14;;;;;;;6.80;4.60;;;;;;;;;;4993251;28;20370;-36
2022/03/15 00:06:39;;;;;;;8.32;4.43;;;;;;;;;;4992742;28;20528;-37
2022/03/15 00:09:05;;;;;;;7.55;4.25;;;;;;;;;;4992968;28;20028;-37
2022/03/15 00:11:30;;;;;;;8.77;4.40;;;;;;;;;;4992748;28;20033;-36
2022/03/15 00:13:57;;;;;;;7.28;5.45;;;;;;;;;;4992742;28;20462;-36
2022/03/15 00:16:22;;;;;;;7.82;4.88;;;;;;;;;;4993075;28;20040;-39
2022/03/15 00:18:48;;;;;;;8.68;4.57;;;;;;;;;;4992656;28;20033;-37
2022/03/15 00:21:13;;;;;;;8.02;5.25;;;;;;;;;;4992914;28;20106;-36
2022/03/15 00:23:39;;;;;;;14.27;5.55;;;;;;;;;;4991202;28;20033;-37
2022/03/15 00:26:05;;;;;;;9.40;5.72;;;;;;;;;;4992809;28;20429;-37
2022/03/15 00:28:31;;;;;;;8.15;4.72;;;;;;;;;;4992808;28;20023;-37
2022/03/15 00:30:57;;;;;;;7.22;4.45;;;;;;;;;;4992502;28;20106;-37
2022/03/15 00:33:25;;;;;;;9.88;4.85;;;;;;;;;;4992482;28;20101;-37
2022/03/15 00:35:51;;;;;;;9.48;5.22;;;;;;;;;;4992359;28;20088;-36
2022/03/15 00:38:16;;;;;;;7.43;3.92;;;;;;;;;;4992438;28;20018;-36
2022/03/15 00:40:43;;;;;;;9.77;4.78;;;;;;;;;;4992320;28;20514;-36
2022/03/15 00:43:08;;;;;;;9.48;4.90;;;;;;;;;;4992511;28;20022;-36
2022/03/15 00:45:34;;;;;;;8.85;4.78;;;;;;;;;;4991982;28;20417;-37
2022/03/15 00:47:59;;;;;;;12.32;4.68;;;;;;;;;;5007402;28;20035;-37
2022/03/15 00:50:28;;;;;;;13.13;5.30;;;;;;;;;;4992255;28;20117;-37
2022/03/15 00:52:56;;;;;;;10.65;4.85;;;;;;;;;;4992287;28;20219;-36
2022/03/15 00:55:22;;;;;;;10.15;4.75;;;;;;;;;;5007175;28;20031;-37
2022/03/15 00:57:47;;;;;;;9.43;4.55;;;;;;;;;;4990816;28;20050;-37
2022/03/15 01:00:13;;;;;;;7.55;3.78;;;;;;;;;;4992025;28;20397;-36
2022/03/15 01:02:39;;;;;;;7.57;4.68;;;;;;;;;;4991937;28;20366;-37
2022/03/15 01:05:06;;;;;;;7.53;4.80;;;;;;;;;;5007085;28;20053;-37
2022/03/15 01:07:31;;;;;;;12.00;5.28;;;;;;;;;;4991947;28;20019;-37
2022/03/15 01:09:57;;;;;;;12.30;4.95;;;;;;;;;;5007036;28;20133;-37
2022/03/15 01:12:22;;;;;;;10.95;4.93;;;;;;;;;;4991979;28;20574;-36
2022/03/15 01:14:48;;;;;;;10.18;4.65;;;;;;;;;;4992007;28;20034;-37
2022/03/15 01:17:13;;;;;;;7.25;5.18;;;;;;;;;;4990660;28;20347;-37
2022/03/15 01:19:40;;;;;;;14.43;5.55;;;;;;;;;;4990473;28;20038;-36
2022/03/15 01:22:05;;;;;;;8.90;4.38;;;;;;;;;;4992100;28;20026;-36
2022/03/15 01:24:30;;;;;;;10.43;5.50;;;;;;;;;;4991607;28;20485;-37
2022/03/15 01:26:56;;;;;;;8.60;4.38;;;;;;;;;;4991804;28;20065;-37
2022/03/15 01:29:23;;;;;;;13.32;6.20;;;;;;;;;;4991912;28;20030;-37
2022/03/15 01:31:48;;;;;;;8.68;4.13;;;;;;;;;;4990375;28;20114;-37
2022/03/15 01:34:14;;;;;;;8.43;5.38;;;;;;;;;;5006826;28;20066;-37
2022/03/15 01:36:39;;;;;;;8.38;4.82;;;;;;;;;;4991907;28;20018;-37
2022/03/15 01:39:05;;;;;;;8.68;5.07;;;;;;;;;;4990384;28;20045;-37
2022/03/15 01:41:35;;;;;;;12.75;4.80;;;;;;;;;;4991899;28;20457;-37
2022/03/15 01:44:01;;;;;;;7.70;3.78;;;;;;;;;;5006760;28;20034;-37
2022/03/15 01:46:27;;;;;;;12.15;4.80;;;;;;;;;;4991431;28;20133;-37
2022/03/15 01:48:52;;;;;;;7.63;4.78;;;;;;;;;;4991643;28;20156;-36
2022/03/15 01:51:18;;;;;;;7.18;4.40;;;;;;;;;;4991541;28;20033;-36
2022/03/15 01:53:43;;;;;;;6.25;4.50;;;;;;;;;;4991472;28;20489;-36
2022/03/15 01:56:09;;;;;;;5.68;3.90;;;;;;;;;;4995387;28;20113;-36
2022/03/15 01:58:37;;;;;;;12.02;4.72;;;;;;;;;;4993918;28;20884;-37
2022/03/15 02:01:05;;;;;;;6.47;4.57;;;;;;;;;;5010233;28;20492;-36
2022/03/15 02:03:32;;;;;;;10.55;5.57;;;;;;;;;;4995085;28;20030;-37
2022/03/15 02:05:58;;;;;;;10.02;5.72;;;;;;;;;;4995247;28;20049;-36
2022/03/15 02:08:23;;;;;;;9.05;5.30;;;;;;;;;;4995386;28;20596;-36
2022/03/15 02:10:49;;;;;;;6.50;4.03;;;;;;;;;;4995066;28;20046;-37
2022/03/15 02:13:19;;;;;;;7.75;5.10;;;;;;;;;;4995343;28;20041;-36
2022/03/15 02:15:44;;;;;;;8.45;5.35;;;;;;;;;;4994809;28;20038;-39
2022/03/15 02:18:10;;;;;;;9.48;5.35;;;;;;;;;;4995068;28;20030;-36
2022/03/15 02:20:35;;;;;;;8.23;5.00;;;;;;;;;;4995075;28;20065;-36
2022/03/15 02:23:01;;;;;;;10.63;4.82;;;;;;;;;;4995182;28;20093;-37
2022/03/15 02:25:26;;;;;;;9.57;5.50;;;;;;;;;;4994784;28;20062;-36
2022/03/15 02:27:52;;;;;;;9.15;5.20;;;;;;;;;;4994667;28;20400;-37
2022/03/15 02:30:21;;;;;;;10.80;5.32;;;;;;;;;;4995065;28;20573;-36
2022/03/15 02:32:47;;;;;;;8.65;5.50;;;;;;;;;;4994928;28;20038;-37
2022/03/15 02:35:16;;;;;;;17.92;5.47;;;;;;;;;;4994587;28;20026;-36
2022/03/15 02:37:42;;;;;;;12.05;5.97;;;;;;;;;;4994627;28;20564;-36
2022/03/15 02:40:08;;;;;;;11.85;4.68;;;;;;;;;;4994580;28;20461;-37
2022/03/15 02:42:35;;;;;;;6.32;4.18;;;;;;;;;;4994818;28;20113;-36
2022/03/15 02:45:01;;;;;;;11.50;6.03;;;;;;;;;;4994212;28;20030;-37
2022/03/15 02:47:27;;;;;;;7.63;5.95;;;;;;;;;;4994414;28;20045;-37
2022/03/15 02:49:52;;;;;;;11.85;6.88;;;;;;;;;;4994606;28;20026;-37
2022/03/15 02:52:18;;;;;;;15.18;5.78;;;;;;;;;;4994668;28;20582;-37
2022/03/15 02:54:43;;;;;;;10.73;5.28;;;;;;;;;;4994303;28;20058;-37
2022/03/15 02:57:10;;;;;;;9.77;5.65;;;;;;;;;;4994236;28;20062;-36
2022/03/15 02:59:36;;;;;;;13.48;5.45;;;;;;;;;;4994429;28;20030;-37
2022/03/15 03:02:03;;;;;;;10.48;5.60;;;;;;;;;;4994524;28;20038;-37
2022/03/15 03:04:28;;;;;;;10.05;5.32;;;;;;;;;;4993268;28;20117;-37
2022/03/15 03:06:54;;;;;;;10.35;6.40;;;;;;;;;;4993609;28;20085;-37
2022/03/15 03:09:20;;;;;;;14.30;6.38;;;;;;;;;;4994082;28;20108;-36
2022/03/15 03:11:45;;;;;;;12.13;6.15;;;;;;;;;;4994171;28;20123;-37
2022/03/15 03:14:12;;;;;;;10.68;5.38;;;;;;;;;;4994311;28;20101;-36
2022/03/15 03:16:39;;;;;;;14.98;6.38;;;;;;;;;;4994087;28;20096;-37
2022/03/15 03:19:08;;;;;;;14.50;5.22;;;;;;;;;;4994108;28;20018;-37
2022/03/15 03:21:36;;;;;;;10.95;5.53;;;;;;;;;;4994057;28;20026;-36
2022/03/15 03:24:03;;;;;;;11.93;6.20;;;;;;;;;;4993830;28;20042;-36
2022/03/15 03:26:28;;;;;;;12.40;6.18;;;;;;;;;;4993586;28;20553;-36
2022/03/15 03:28:56;;;;;;;10.35;5.90;;;;;;;;;;4993697;28;20026;-36
2022/03/15 03:31:24;;;;;;;11.25;6.75;;;;;;;;;;4993982;28;20026;-37
2022/03/15 03:33:49;;;;;;;10.38;5.15;;;;;;;;;;4993743;28;20457;-37
2022/03/15 03:36:14;;;;;;;11.68;5.50;;;;;;;;;;4992283;28;20145;-36
2022/03/15 03:38:41;;;;;;;9.80;5.85;;;;;;;;;;4993496;28;20434;-36
2022/03/15 03:41:07;;;;;;;11.75;6.18;;;;;;;;;;4993626;28;20034;-36
2022/03/15 03:43:32;;;;;;;14.30;7.15;;;;;;;;;;4993618;28;20022;-37
2022/03/15 03:45:58;;;;;;;10.88;6.10;;;;;;;;;;4993196;28;20448;-37
2022/03/15 03:48:24;;;;;;;11.70;5.90;;;;;;;;;;4993576;28;20390;-37
2022/03/15 03:50:50;;;;;;;13.05;6.68;;;;;;;;;;4993501;28;20113;-36
2022/03/15 03:53:17;;;;;;;11.48;5.95;;;;;;;;;;4993419;28;20106;-37
2022/03/15 03:55:42;;;;;;;12.38;6.93;;;;;;;;;;4993127;28;20532;-36
2022/03/15 03:58:08;;;;;;;13.60;6.03;;;;;;;;;;4993413;28;20027;-42
2022/03/15 04:00:34;;;;;;;11.68;5.53;;;;;;;;;;4992921;28;20470;-37
2022/03/15 04:03:00;;;;;;;12.85;6.10;;;;;;;;;;4993105;28;20069;-36
2022/03/15 04:05:28;;;;;;;11.25;5.97;;;;;;;;;;4992913;28;20053;-40
2022/03/15 04:07:54;;;;;;;9.77;6.28;;;;;;;;;;4993365;28;20034;-37
2022/03/15 04:10:21;;;;;;;13.38;6.60;;;;;;;;;;4992910;28;20034;-37
2022/03/15 04:12:47;;;;;;;13.15;6.78;;;;;;;;;;4992725;28;20040;-36
2022/03/15 04:15:13;;;;;;;8.27;5.13;;;;;;;;;;4992828;28;20106;-36
2022/03/15 04:17:38;;;;;;;15.30;6.88;;;;;;;;;;4992681;28;20162;-36
2022/03/15 04:20:04;;;;;;;11.40;5.70;;;;;;;;;;4992745;28;20022;-36
2022/03/15 04:22:29;;;;;;;11.60;7.35;;;;;;;;;;4992645;28;20030;-36
2022/03/15 04:24:55;;;;;;;8.48;5.68;;;;;;;;;;4992764;28;20058;-37
2022/03/15 04:27:20;;;;;;;8.15;5.78;;;;;;;;;;4992973;28;20365;-37
2022/03/15 04:29:46;;;;;;;9.82;6.75;;;;;;;;;;4992673;28;20061;-37
2022/03/15 04:32:12;;;;;;;11.38;5.80;;;;;;;;;;4992601;28;20148;-37
2022/03/15 04:34:37;;;;;;;13.95;6.72;;;;;;;;;;4992679;28;20031;-37
2022/03/15 04:37:03;;;;;;;12.23;6.70;;;;;;;;;;4992347;28;20037;-36
2022/03/15 04:39:29;;;;;;;11.10;6.15;;;;;;;;;;4992413;28;20030;-36
2022/03/15 04:41:54;;;;;;;24.15;6.60;;;;;;;;;;4992315;28;20033;-36
2022/03/15 04:44:20;;;;;;;9.90;5.45;;;;;;;;;;4992144;28;20070;-36
2022/03/15 04:46:46;;;;;;;10.98;5.65;;;;;;;;;;4992132;28;20058;-37
2022/03/15 04:49:11;;;;;;;11.68;6.05;;;;;;;;;;4992537;28;20100;-36
2022/03/15 04:51:37;;;;;;;10.15;4.63;;;;;;;;;;4992356;28;20512;-37
2022/03/15 04:54:04;;;;;;;12.98;6.70;;;;;;;;;;4991321;28;20026;-36
2022/03/15 04:56:30;;;;;;;13.55;6.65;;;;;;;;;;4992330;28;20073;-36
2022/03/15 04:58:55;;;;;;;14.23;5.97;;;;;;;;;;4992024;28;20516;-36
2022/03/15 05:01:20;;;;;;;13.68;6.47;;;;;;;;;;4992095;28;20050;-36
2022/03/15 05:03:46;;;;;;;11.95;5.75;;;;;;;;;;4992255;28;20117;-36
2022/03/15 05:06:11;;;;;;;9.48;7.15;;;;;;;;;;4992006;28;20030;-37
2022/03/15 05:08:37;;;;;;;15.25;5.80;;;;;;;;;;4992004;28;20049;-36
2022/03/15 05:11:09;;;;;;;13.00;5.78;;;;;;;;;;4992002;28;20022;-36
2022/03/15 05:13:35;;;;;;;9.98;6.43;;;;;;;;;;4991916;28;20076;-36
2022/03/15 05:16:00;;;;;;;10.68;5.97;;;;;;;;;;4992159;28;20034;-37
2022/03/15 05:18:26;;;;;;;11.13;6.07;;;;;;;;;;4992180;28;20444;-36
2022/03/15 05:20:51;;;;;;;11.48;6.03;;;;;;;;;;4991797;28;20093;-37
2022/03/15 05:23:17;;;;;;;10.20;6.68;;;;;;;;;;4992244;28;20031;-37
2022/03/15 05:25:42;;;;;;;12.15;7.15;;;;;;;;;;4991630;28;20034;-37
2022/03/15 05:28:08;;;;;;;13.93;6.88;;;;;;;;;;4992162;28;20362;-37
2022/03/15 05:30:34;;;;;;;13.50;6.20;;;;;;;;;;4995803;28;20038;-37
2022/03/15 05:33:00;;;;;;;14.45;7.28;;;;;;;;;;4995980;28;20030;-37
2022/03/15 05:35:25;;;;;;;10.23;5.70;;;;;;;;;;4995850;28;20566;-36
2022/03/15 05:37:51;;;;;;;11.80;6.55;;;;;;;;;;4995863;28;20644;-36
2022/03/15 05:40:16;;;;;;;12.05;7.00;;;;;;;;;;4995917;28;20026;-36
2022/03/15 05:42:42;;;;;;;13.70;6.93;;;;;;;;;;4995645;28;20449;-36
2022/03/15 05:45:07;;;;;;;10.98;6.07;;;;;;;;;;4995582;28;20499;-37
2022/03/15 05:47:33;;;;;;;13.60;7.10;;;;;;;;;;4995495;28;20030;-36
2022/03/15 05:50:00;;;;;;;13.88;7.65;;;;;;;;;;4995847;28;20065;-36
2022/03/15 05:52:26;;;;;;;11.98;7.18;;;;;;;;;;4995450;28;20034;-37
2022/03/15 05:54:51;;;;;;;16.88;7.15;;;;;;;;;;4995613;28;20072;-36
2022/03/15 05:57:17;;;;;;;16.20;7.10;;;;;;;;;;4995427;28;20394;-36
2022/03/15 05:59:42;;;;;;;12.32;6.50;;;;;;;;;;4995617;28;20019;-36
2022/03/15 06:02:08;;;;;;;13.00;6.35;;;;;;;;;;4995283;28;20080;-36
2022/03/15 06:04:33;;;;;;;13.82;6.70;;;;;;;;;;4995065;28;20121;-37
2022/03/15 06:06:59;;;;;;;9.32;6.53;;;;;;;;;;4995539;28;20042;-37
2022/03/15 06:09:25;;;;;;;10.85;5.80;;;;;;;;;;4995055;28;20037;-36
2022/03/15 06:11:51;;;;;;;10.57;5.82;;;;;;;;;;4995369;28;20066;-36
2022/03/15 06:14:19;;;;;;;13.55;7.82;;;;;;;;;;5010502;28;20022;-36
2022/03/15 06:16:47;;;;;;;13.02;7.35;;;;;;;;;;4994919;28;20124;-36
2022/03/15 06:19:12;;;;;;;13.13;6.07;;;;;;;;;;4995324;28;20050;-37
2022/03/15 06:21:39;;;;;;;15.07;7.00;;;;;;;;;;4995093;28;20053;-36
2022/03/15 06:24:05;;;;;;;14.77;6.65;;;;;;;;;;4994779;28;20042;-36
2022/03/15 06:26:31;;;;;;;14.52;7.05;;;;;;;;;;4994951;28;20149;-36
2022/03/15 06:28:57;;;;;;;15.40;7.47;;;;;;;;;;4995049;28;20113;-36
2022/03/15 06:31:23;;;;;;;9.45;6.65;;;;;;;;;;4994704;28;20027;-36
2022/03/15 06:33:48;;;;;;;13.57;7.50;;;;;;;;;;4994924;28;20164;-36
2022/03/15 06:36:15;;;;;;;14.45;6.47;;;;;;;;;;4994494;28;20034;-35
2022/03/15 06:38:41;;;;;;;14.40;7.25;;;;;;;;;;4994540;28;20030;-36
2022/03/15 06:41:07;;;;;;;20.10;6.75;;;;;;;;;;4994668;28;20039;-36
2022/03/15 06:43:34;;;;;;;9.90;6.40;;;;;;;;;;4994522;28;20022;-36
2022/03/15 06:46:00;;;;;;;22.35;8.35;;;;;;;;;;4994412;28;20050;-36
2022/03/15 06:48:25;;;;;;;20.38;7.70;;;;;;;;;;4994507;28;20038;-36
2022/03/15 06:50:52;;;;;;;15.68;6.40;;;;;;;;;;4994353;28;20033;-36
2022/03/15 06:53:18;;;;;;;14.00;7.13;;;;;;;;;;4994350;28;20488;-37
2022/03/15 06:55:43;;;;;;;15.13;6.97;;;;;;;;;;4994588;28;20026;-36
2022/03/15 06:58:09;;;;;;;13.63;6.50;;;;;;;;;;4994543;28;20019;-37
2022/03/15 07:00:35;;;;;;;8.52;5.63;;;;;;;;;;4994184;28;20049;-36
2022/03/15 07:03:00;;;;;;;15.27;8.63;;;;;;;;;;4994507;28;20106;-36
2022/03/15 07:05:26;;;;;;;10.85;6.50;;;;;;;;;;4994261;28;20096;-36
2022/03/15 07:07:51;;;;;;;12.63;6.50;;;;;;;;;;4994349;28;20428;-37
2022/03/15 07:10:19;;;;;;;17.50;7.55;;;;;;;;;;4994103;28;20457;-36
2022/03/15 07:12:44;;;;;;;12.70;6.90;;;;;;;;;;4994109;28;20178;-36
2022/03/15 07:15:11;;;;;;;16.67;7.95;;;;;;;;;;4994295;28;20477;-36
2022/03/15 07:17:36;;;;;;;14.52;6.35;;;;;;;;;;4993878;28;20018;-36
2022/03/15 07:20:02;;;;;;;10.18;6.13;;;;;;;;;;4994097;28;20049;-37
2022/03/15 07:22:28;;;;;;;13.77;7.75;;;;;;;;;;4994161;28;20019;-36
2022/03/15 07:24:53;;;;;;;12.95;6.63;;;;;;;;;;4993633;28;20386;-37
2022/03/15 07:27:20;;;;;;;10.68;7.05;;;;;;;;;;4993813;28;20022;-37
2022/03/15 07:29:45;;;;;;;14.35;8.25;;;;;;;;;;4993525;28;20049;-36
2022/03/15 07:32:10;;;;;;;14.65;7.07;;;;;;;;;;4993669;28;20461;-36
2022/03/15 07:34:36;;;;;;;13.43;6.10;;;;;;;;;;4993544;28;20366;-37
2022/03/15 07:37:02;;;;;;;14.15;7.43;;;;;;;;;;4993833;28;20023;-36
2022/03/15 07:39:27;;;;;;;15.07;6.28;;;;;;;;;;4993518;28;20442;-36
2022/03/15 07:41:54;;;;;;;13.88;6.75;;;;;;;;;;4993645;28;20035;-36
2022/03/15 07:44:20;;;;;;;15.40;7.18;;;;;;;;;;4992383;28;20064;-36
2022/03/15 07:46:48;;;;;;;12.73;7.20;;;;;;;;;;4993288;28;20552;-37
2022/03/15 07:49:20;;;;;;;16.98;8.63;;;;;;;;;;4993453;28;20085;-36
2022/03/15 07:51:46;;;;;;;17.77;6.93;;;;;;;;;;4992682;28;20044;-37
2022/03/15 07:54:12;;;;;;;15.10;7.15;;;;;;;;;;4993221;28;20038;-36
2022/03/15 07:56:38;;;;;;;16.73;8.23;;;;;;;;;;4993054;28;20022;-36
2022/03/15 07:59:04;;;;;;;20.70;8.77;;;;;;;;;;4993494;28;20085;-36
2022/03/15 08:01:29;;;;;;;13.57;7.35;;;;;;;;;;4993093;28;20468;-36
2022/03/15 08:03:56;;;;;;;14.15;6.20;;;;;;;;;;4992921;28;20030;-36
2022/03/15 08:06:22;;;;;;;14.40;6.70;;;;;;;;;;4993282;28;20046;-35
2022/03/15 08:08:48;;;;;;;11.23;6.00;;;;;;;;;;4993151;28;20029;-36
2022/03/15 08:11:14;;;;;;;14.70;6.38;;;;;;;;;;4992874;28;20053;-36
2022/03/15 08:13:40;;;;;;;15.73;8.25;;;;;;;;;;4993074;28;20049;-38
2022/03/15 08:16:06;;;;;;;12.20;6.43;;;;;;;;;;4993055;28;20038;-36
2022/03/15 08:18:32;;;;;;;17.00;7.50;;;;;;;;;;4992737;28;20105;-36
2022/03/15 08:20:59;;;;;;;17.63;7.93;;;;;;;;;;5007825;28;20142;-37
2022/03/15 08:23:24;;;;;;;18.00;6.60;;;;;;;;;;4992803;28;20023;-37
2022/03/15 08:25:50;;;;;;;13.18;6.72;;;;;;;;;;4992495;28;20041;-36
2022/03/15 08:28:15;;;;;;;17.25;6.20;;;;;;;;;;5008081;28;20492;-36
2022/03/15 08:30:40;;;;;;;11.05;7.00;;;;;;;;;;4992593;28;20026;-36
2022/03/15 08:33:06;;;;;;;14.68;8.23;;;;;;;;;;4992777;28;20019;-37
2022/03/15 08:35:31;;;;;;;13.45;7.43;;;;;;;;;;4992803;28;20027;-36
2022/03/15 08:37:57;;;;;;;20.02;6.70;;;;;;;;;;4992307;28;20376;-36
2022/03/15 08:40:23;;;;;;;14.43;7.05;;;;;;;;;;4992890;28;20029;-36
2022/03/15 08:42:54;;;;;;;13.30;7.10;;;;;;;;;;4992341;28;20089;-36
2022/03/15 08:45:20;;;;;;;14.60;6.88;;;;;;;;;;4992219;28;20081;-38
2022/03/15 08:47:46;;;;;;;24.80;7.15;;;;;;;;;;4992305;28;20034;-37
2022/03/15 08:50:11;;;;;;;14.57;6.97;;;;;;;;;;4992265;28;20038;-37
2022/03/15 08:52:37;;;;;;;15.70;7.95;;;;;;;;;;4992081;28;20018;-36
2022/03/15 08:55:02;;;;;;;11.75;6.55;;;;;;;;;;4992166;28;20049;-36
2022/03/15 08:57:28;;;;;;;14.50;7.30;;;;;;;;;;4992308;28;20046;-37
2022/03/15 08:59:54;;;;;;;9.80;6.20;;;;;;;;;;4992343;28;20073;-36
2022/03/15 09:02:20;;;;;;;13.40;7.85;;;;;;;;;;4992115;28;20451;-36
2022/03/15 09:04:46;;;;;;;10.75;5.90;;;;;;;;;;4991631;28;20054;-37
2022/03/15 09:07:11;;;;;;;12.15;7.35;;;;;;;;;;4992313;28;20026;-36
2022/03/15 09:09:37;;;;;;;16.17;7.75;;;;;;;;;;4992118;28;20519;-37
2022/03/15 09:12:03;;;;;;;13.10;7.05;;;;;;;;;;4992303;28;20101;-37
2022/03/15 09:14:29;;;;;;;10.35;6.43;;;;;;;;;;4991873;28;20041;-37
2022/03/15 09:16:54;;;;;;;13.65;7.47;;;;;;;;;;4992190;28;20018;-37
2022/03/15 09:19:20;;;;;;;11.00;5.65;;;;;;;;;;4992256;28;20469;-36
2022/03/15 09:21:46;;;;;;;11.90;6.10;;;;;;;;;;4991736;28;20022;-36
2022/03/15 09:24:11;;;;;;;11.07;6.00;;;;;;;;;;4991780;28;20173;-36
2022/03/15 09:26:37;;;;;;;10.40;6.22;;;;;;;;;;4992109;28;20023;-36
2022/03/15 09:29:03;;;;;;;12.52;6.38;;;;;;;;;;4991736;28;20046;-36
2022/03/15 09:31:28;;;;;;;11.25;5.80;;;;;;;;;;4991998;28;20018;-37
2022/03/15 09:33:54;;;;;;;12.00;5.32;;;;;;;;;;4991993;28;20041;-36
2022/03/15 09:36:19;;;;;;;9.43;4.82;;;;;;;;;;4991671;28;20379;-36
2022/03/15 09:38:45;;;;;;;9.63;5.10;;;;;;;;;;4991773;28;20045;-37
2022/03/15 09:41:14;;;;;;;12.68;5.28;;;;;;;;;;4992010;28;20022;-37
2022/03/15 09:43:42;;;;;;;10.23;4.57;;;;;;;;;;4991606;28;20034;-36
2022/03/15 09:46:08;;;;;;;7.00;4.55;;;;;;;;;;4991701;28;20054;-39
2022/03/15 09:48:35;;;;;;;9.63;5.45;;;;;;;;;;4991734;28;20109;-36
2022/03/15 09:51:03;;;;;;;7.97;4.68;;;;;;;;;;4991771;28;20105;-36
2022/03/15 09:53:29;;;;;;;9.05;4.97;;;;;;;;;;4991637;28;20065;-36
2022/03/15 09:55:55;;;;;;;7.05;4.80;;;;;;;;;;4991825;28;20058;-36
2022/03/15 09:58:21;;;;;;;6.75;3.67;;;;;;;;;;4991564;28;20396;-36
2022/03/15 10:00:51;;;;;;;6.63;4.22;;;;;;;;;;4991409;28;20028;-36
2022/03/15 10:03:16;;;;;;;10.57;4.63;;;;;;;;;;4991534;28;20125;-37
2022/03/15 10:05:44;;;;;;;9.02;4.80;;;;;;;;;;4991310;28;20150;-37
2022/03/15 10:08:10;;;;;;;8.75;5.13;;;;;;;;;;4991822;28;20077;-36
2022/03/15 10:10:36;;;;;;;4.72;3.50;;;;;;;;;;4991422;28;20022;-36
2022/03/15 10:13:02;;;;;;;6.15;4.13;;;;;;;;;;4991423;28;20035;-37
2022/03/15 10:15:27;;;;;;;6.15;3.80;;;;;;;;;;4993662;28;20034;-36
2022/03/15 10:18:04;;;;;;;6.63;4.10;;;;;;;;;;4995183;28;20077;-37
2022/03/15 10:20:31;;;;;;;8.85;4.85;;;;;;;;;;4995089;28;20041;-36
2022/03/15 10:23:00;;;;;;;6.18;4.30;;;;;;;;;;4994797;28;20030;-36
2022/03/15 10:25:27;;;;;;;5.22;4.10;;;;;;;;;;4994791;28;20523;-36
2022/03/15 10:27:54;;;;;;;6.05;4.50;;;;;;;;;;4995064;28;20088;-37
2022/03/15 10:30:19;;;;;;;7.78;3.63;;;;;;;;;;5009925;28;20549;-36
2022/03/15 10:32:46;;;;;;;7.20;4.13;;;;;;;;;;4995219;28;20126;-36
2022/03/15 10:35:12;;;;;;;9.27;4.78;;;;;;;;;;4994962;28;20026;-37
2022/03/15 10:37:41;;;;;;;7.78;4.57;;;;;;;;;;4994732;28;20018;-36
2022/03/15 10:40:07;;;;;;;6.32;3.83;;;;;;;;;;4994521;28;20023;-37
2022/03/15 10:42:37;;;;;;;5.15;3.38;;;;;;;;;;4994589;28;20025;-37
2022/03/15 10:45:13;;;;;;;4.05;2.75;;;;;;;;;;4994294;28;20050;-37
2022/03/15 10:47:46;;;;;;;5.18;3.35;;;;;;;;;;4994418;28;20074;-36
2022/03/15 10:50:12;;;;;;;15.05;4.00;;;;;;;;;;4994688;28;20034;-36
2022/03/15 10:52:40;;;;;;;5.00;4.28;;;;;;;;;;4994631;28;20525;-36
2022/03/15 10:55:08;;;;;;;7.07;4.10;;;;;;;;;;4994353;28;20496;-37
2022/03/15 10:57:51;;;;;;;6.40;3.28;;;;;;;;;;4994409;28;20034;-36
2022/03/15 11:00:19;;;;;;;4.00;2.72;;;;;;;;;;4994479;28;20033;-36
2022/03/15 11:02:45;;;;;;;7.65;4.18;;;;;;;;;;4994457;28;20117;-36
2022/03/15 11:05:11;;;;;;;3.88;2.50;;;;;;;;;;4994439;28;20047;-36
2022/03/15 11:07:38;;;;;;;6.75;3.35;;;;;;;;;;4994017;28;20026;-36
2022/03/15 11:10:10;;;;;;;5.28;3.17;;;;;;;;;;4994469;28;20080;-36
2022/03/15 11:12:37;;;;;;;3.53;3.22;;;;;;;;;;5009178;28;20046;-36
2022/03/15 11:15:03;;;;;;;6.10;3.40;;;;;;;;;;4994211;28;20114;-36
2022/03/15 11:17:32;;;;;;;6.22;3.05;;;;;;;;;;4994254;28;20133;-36
2022/03/15 11:19:59;;;;;;;6.03;3.08;;;;;;;;;;4993866;28;20082;-36
2022/03/15 11:22:30;;;;;;;4.35;2.88;;;;;;;;;;4993867;28;20469;-36
2022/03/15 11:25:11;;;;;;;2.75;2.22;;;;;;;;;;5008594;28;20100;-37
2022/03/15 11:27:40;;;;;;;4.88;2.85;;;;;;;;;;4992989;28;20033;-36
2022/03/15 11:30:07;;;;;;;4.85;2.67;;;;;;;;;;4993933;28;20072;-37
2022/03/15 11:32:33;;;;;;;3.35;2.63;;;;;;;;;;4994066;28;20373;-37
2022/03/15 11:34:59;;;;;;;4.90;2.75;;;;;;;;;;4993445;28;20049;-37
2022/03/15 11:37:29;;;;;;;5.10;3.13;;;;;;;;;;4993549;28;20042;-36
2022/03/15 11:39:54;;;;;;;3.65;2.33;;;;;;;;;;4993464;28;20034;-36
2022/03/15 11:42:20;;;;;;;5.13;3.55;;;;;;;;;;4993471;28;20088;-37
2022/03/15 11:44:49;;;;;;;5.88;2.95;;;;;;;;;;4993470;28;20042;-36
2022/03/15 11:47:24;;;;;;;5.22;3.42;;;;;;;;;;4993361;28;20443;-37
2022/03/15 11:50:01;;;;;;;9.02;3.33;;;;;;;;;;4993238;28;20545;-37
2022/03/15 11:52:34;;;;;;;4.97;2.78;;;;;;;;;;4993573;28;20026;-37
2022/03/15 11:55:09;;;;;;;7.68;3.30;;;;;;;;;;4993275;28;20436;-37
2022/03/15 11:57:37;;;;;;;10.60;3.45;;;;;;;;;;4993162;28;20401;-37
2022/03/15 12:00:03;;;;;;;9.20;3.88;;;;;;;;;;4993244;28;20022;-36
2022/03/15 12:02:30;;;;;;;6.03;3.58;;;;;;;;;;4993405;28;20023;-36
2022/03/15 12:04:57;;;;;;;8.95;3.33;;;;;;;;;;4993137;28;20042;-36
2022/03/15 12:07:48;;;;;;;5.35;4.03;;;;;;;;;;5008138;28;20446;-36
2022/03/15 12:10:24;;;;;;;8.27;3.10;;;;;;;;;;4993620;28;20366;-36
2022/03/15 12:13:00;;;;;;;9.70;4.20;;;;;;;;;;4992698;28;20057;-36
2022/03/15 12:15:34;;;;;;;4.95;3.25;;;;;;;;;;4993205;28;20034;-37
2022/03/15 12:18:14;;;;;;;5.03;3.53;;;;;;;;;;4992790;28;20026;-36
2022/03/15 12:20:48;;;;;;;8.10;3.38;;;;;;;;;;4992963;28;20030;-36
2022/03/15 12:23:38;;;;;;;4.22;3.63;;;;;;;;;;4992633;28;20081;-36
2022/03/15 12:26:04;;;;;;;4.63;2.90;;;;;;;;;;4987485;28;20417;-36
2022/03/15 12:28:31;;;;;;;6.55;3.28;;;;;;;;;;4993048;28;20014;-36
2022/03/15 12:31:03;;;;;;;8.55;3.45;;;;;;;;;;4992482;28;20069;-36
2022/03/15 12:33:29;;;;;;;6.35;3.28;;;;;;;;;;4992479;28;20046;-37
2022/03/15 12:36:08;;;;;;;7.05;3.67;;;;;;;;;;4992450;28;20046;-36
2022/03/15 12:38:35;;;;;;;6.97;4.13;;;;;;;;;;4992649;28;20057;-36
2022/03/15 12:41:01;;;;;;;4.28;3.33;;;;;;;;;;4991046;28;20029;-41
2022/03/15 12:43:31;;;;;;;5.88;3.75;;;;;;;;;;4992576;28;20034;-37
2022/03/15 12:46:04;;;;;;;4.25;3.63;;;;;;;;;;4992224;28;20137;-36
2022/03/15 12:48:32;;;;;;;8.70;3.42;;;;;;;;;;4992271;28;20425;-37
2022/03/15 12:51:01;;;;;;;6.45;3.65;;;;;;;;;;4992251;28;20487;-36
2022/03/15 12:53:36;;;;;;;3.92;3.50;;;;;;;;;;4992134;28;20761;-36
2022/03/15 12:56:03;;;;;;;7.53;3.53;;;;;;;;;;4992173;28;20034;-36
2022/03/15 12:58:30;;;;;;;5.50;3.88;;;;;;;;;;4992171;28;20022;-37
2022/03/15 13:00:58;;;;;;;7.47;3.00;;;;;;;;;;4992119;28;20039;-37
2022/03/15 13:03:24;;;;;;;5.72;3.92;;;;;;;;;;4992020;28;20080;-36
2022/03/15 13:05:53;;;;;;;3.45;1.80;;;;;;;;;;4992199;28;20393;-37
2022/03/15 13:08:22;;;;;;;6.95;3.70;;;;;;;;;;4991982;28;20033;-36
2022/03/15 13:10:53;;;;;;;10.13;4.10;;;;;;;;;;4991965;28;20045;-37
2022/03/15 13:13:28;;;;;;;6.57;3.53;;;;;;;;;;4992025;28;20037;-36
2022/03/15 13:16:03;;;;;;;9.52;3.83;;;;;;;;;;4992181;28;20037;-36
2022/03/15 13:18:36;;;;;;;6.18;3.63;;;;;;;;;;4992301;28;20547;-36
2022/03/15 13:21:02;;;;;;;4.00;3.00;;;;;;;;;;4992136;28;20030;-36
2022/03/15 13:23:32;;;;;;;6.53;3.53;;;;;;;;;;4991844;28;20076;-37
2022/03/15 13:26:05;;;;;;;7.68;3.47;;;;;;;;;;4991681;28;20049;-36
2022/03/15 13:28:34;;;;;;;4.85;3.42;;;;;;;;;;4991900;28;20034;-37
2022/03/15 13:31:04;;;;;;;7.97;4.22;;;;;;;;;;4991922;28;20068;-37
2022/03/15 13:33:31;;;;;;;6.60;4.38;;;;;;;;;;4992120;28;20385;-36
2022/03/15 13:36:33;;;;;;;10.75;3.58;;;;;;;;;;4991633;28;20080;-37
2022/03/15 13:39:00;;;;;;;6.18;4.20;;;;;;;;;;4983801;28;20046;-37
2022/03/15 13:41:36;;;;;;;13.10;4.18;;;;;;;;;;4991764;28;20026;-37
2022/03/15 13:44:02;;;;;;;8.00;3.83;;;;;;;;;;4991492;28;20031;-36
2022/03/15 13:46:32;;;;;;;10.40;4.13;;;;;;;;;;4991542;28;20061;-36
2022/03/15 13:48:58;;;;;;;8.63;4.45;;;;;;;;;;4991964;28;20060;-36
2022/03/15 13:51:30;;;;;;;7.35;4.10;;;;;;;;;;4994295;28;20026;-36
2022/03/15 13:54:12;;;;;;;5.57;3.75;;;;;;;;;;4995740;28;20404;-36
2022/03/15 13:56:39;;;;;;;8.20;4.22;;;;;;;;;;4994511;28;20114;-37
2022/03/15 13:59:06;;;;;;;7.07;3.58;;;;;;;;;;4995442;28;20050;-36
2022/03/15 14:01:42;;;;;;;10.35;3.53;;;;;;;;;;4995491;28;20048;-36
2022/03/15 14:04:10;;;;;;;5.55;3.53;;;;;;;;;;4995218;28;20558;-37
2022/03/15 14:06:39;;;;;;;10.70;3.67;;;;;;;;;;4994114;28;20065;-37
2022/03/15 14:09:10;;;;;;;7.70;3.50;;;;;;;;;;4995609;28;20062;-36
2022/03/15 14:11:46;;;;;;;6.50;4.28;;;;;;;;;;4995452;28;20370;-36
2022/03/15 14:14:13;;;;;;;10.60;4.93;;;;;;;;;;4995407;28;20045;-37
2022/03/15 14:16:52;;;;;;;5.65;3.83;;;;;;;;;;4995096;28;20018;-36
2022/03/15 14:19:22;;;;;;;5.00;3.20;;;;;;;;;;4995382;28;20038;-36
2022/03/15 14:21:51;;;;;;;11.48;4.60;;;;;;;;;;4994818;28;20022;-43
2022/03/15 14:24:21;;;;;;;7.43;3.92;;;;;;;;;;4994913;28;20104;-37
2022/03/15 14:26:48;;;;;;;5.90;3.50;;;;;;;;;;4993541;28;20022;-36
2022/03/15 14:29:17;;;;;;;7.63;4.28;;;;;;;;;;4994845;28;20389;-37
2022/03/15 14:31:43;;;;;;;9.18;4.80;;;;;;;;;;4995080;28;20097;-36
2022/03/15 14:34:10;;;;;;;7.28;4.45;;;;;;;;;;4994666;28;20027;-37
2022/03/15 14:36:38;;;;;;;5.70;3.90;;;;;;;;;;4994795;28;20050;-36